Time;durP1;ratioP1;P1;durP2;ratioP2;P2;SDS_P1;SDS_P2;PMS_P1;PMS_P2;Temp;Humidity;BMP_temperature;BMP_pressure;BME280_temperature;BME280_humidity;BME280_pressure;Samples;Min_cycle;Max_cycle;Signal;HPM_P1;HPM_P2
2021/03/09 00:01:52;;;;;;;4.22;2.27;;;;;;;-4.50;63.49;100214.58;1793305;79;21895;-67
2021/03/09 00:04:20;;;;;;;4.47;2.35;;;;;;;-4.52;63.49;100211.62;1803865;79;22568;-67
2021/03/09 00:06:48;;;;;;;3.75;2.30;;;;;;;-4.54;63.54;100214.66;1799739;78;21056;-68
2021/03/09 00:09:16;;;;;;;6.20;2.85;;;;;;;-4.56;63.68;100218.55;1780328;79;21133;-67
2021/03/09 00:11:43;;;;;;;5.72;3.00;;;;;;;-4.57;63.72;100219.87;1795040;79;21070;-68
2021/03/09 00:14:11;;;;;;;4.15;2.47;;;;;;;-4.60;63.78;100216.94;1777747;80;21959;-67
2021/03/09 00:16:40;;;;;;;4.83;2.50;;;;;;;-4.64;63.82;100217.41;1773685;79;21124;-67
2021/03/09 00:19:08;;;;;;;4.00;2.30;;;;;;;-4.67;63.87;100217.92;1779377;79;21046;-67
2021/03/09 00:21:37;;;;;;;4.42;2.70;;;;;;;-4.70;63.95;100220.13;1788479;79;21101;-68
2021/03/09 00:24:06;;;;;;;5.33;2.50;;;;;;;-4.74;64.04;100217.19;1785018;79;21477;-67
2021/03/09 00:26:34;;;;;;;5.55;3.08;;;;;;;-4.75;64.13;100223.66;1777377;80;22118;-68
2021/03/09 00:29:02;;;;;;;3.75;2.30;;;;;;;-4.78;64.21;100219.43;1776100;80;21138;-67
2021/03/09 00:31:30;;;;;;;6.85;3.15;;;;;;;-4.80;64.24;100227.63;1779333;79;21160;-68
2021/03/09 00:33:58;;;;;;;4.83;2.52;;;;;;;-4.80;64.25;100223.77;1772543;80;21059;-68
2021/03/09 00:36:26;;;;;;;6.62;2.70;;;;;;;-4.81;64.25;100215.62;1767410;81;21069;-68
2021/03/09 00:38:54;;;;;;;4.83;2.47;;;;;;;-4.81;64.29;100222.52;1767154;81;24303;-67
2021/03/09 00:41:22;;;;;;;6.20;3.05;;;;;;;-4.86;64.37;100227.73;1766112;81;21120;-68
2021/03/09 00:43:50;;;;;;;5.03;2.58;;;;;;;-4.91;64.45;100229.56;1736902;82;21148;-67
2021/03/09 00:46:17;;;;;;;7.05;2.85;;;;;;;-4.94;64.44;100221.88;1736872;82;21070;-68
2021/03/09 00:48:46;;;;;;;6.97;3.60;;;;;;;-4.96;64.43;100222.34;1736989;81;21133;-68
2021/03/09 00:51:13;;;;;;;5.72;2.70;;;;;;;-4.96;64.43;100226.21;1744865;80;24198;-68
2021/03/09 00:53:42;;;;;;;7.37;3.27;;;;;;;-4.98;64.44;100218.52;1780846;80;21157;-68
2021/03/09 00:56:09;;;;;;;8.10;3.50;;;;;;;-4.99;64.43;100224.99;1767436;81;21148;-67
2021/03/09 00:58:37;;;;;;;4.47;2.67;;;;;;;-5.02;64.54;100221.16;1766722;81;21058;-67
2021/03/09 01:01:05;;;;;;;6.08;2.80;;;;;;;-5.06;64.51;100220.82;1762472;80;21022;-68
2021/03/09 01:03:33;;;;;;;5.87;3.02;;;;;;;-5.09;64.45;100220.89;1735671;81;22072;-68
2021/03/09 01:06:01;;;;;;;6.47;2.58;;;;;;;-5.10;64.56;100221.77;1767101;81;21156;-68
2021/03/09 01:08:28;;;;;;;5.20;3.15;;;;;;;-5.13;64.51;100222.64;1771782;80;21061;-68
2021/03/09 01:10:56;;;;;;;6.83;3.37;;;;;;;-5.15;64.49;100226.13;1793909;79;21343;-67
2021/03/09 01:13:24;;;;;;;8.10;3.60;;;;;;;-5.17;64.54;100233.89;1782183;79;21075;-68
2021/03/09 01:15:52;;;;;;;6.03;3.40;;;;;;;-5.19;64.56;100232.64;1767407;81;22042;-68
2021/03/09 01:18:20;;;;;;;7.70;3.95;;;;;;;-5.20;64.53;100242.52;1767335;81;22636;-67
2021/03/09 01:20:49;;;;;;;9.03;4.42;;;;;;;-5.19;64.47;100244.22;1741858;81;21075;-68
2021/03/09 01:23:16;;;;;;;8.20;3.40;;;;;;;-5.20;64.47;100250.69;1759311;81;21055;-68
2021/03/09 01:25:44;;;;;;;7.72;3.27;;;;;;;-5.22;64.52;100245.54;1742387;81;21493;-67
2021/03/09 01:28:12;;;;;;;6.58;2.90;;;;;;;-5.22;64.50;100248.11;1766029;81;21898;-68
2021/03/09 01:30:40;;;;;;;5.83;2.90;;;;;;;-5.24;64.49;100250.31;1767256;81;21573;-67
2021/03/09 01:33:09;;;;;;;5.15;3.12;;;;;;;-5.29;64.55;100246.55;1763336;80;21148;-68
2021/03/09 01:35:38;;;;;;;6.17;2.70;;;;;;;-5.30;64.53;100256.43;1716106;82;21074;-68
2021/03/09 01:38:05;;;;;;;6.10;2.70;;;;;;;-5.31;64.55;100258.56;1762586;79;21338;-68
2021/03/09 01:40:33;;;;;;;4.53;2.22;;;;;;;-5.31;64.55;100252.56;1775994;79;22056;-68
2021/03/09 01:43:03;;;;;;;6.97;3.40;;;;;;;-5.30;64.53;100252.57;1743315;80;21213;-67
2021/03/09 01:45:31;;;;;;;5.85;3.35;;;;;;;-5.28;64.43;100257.25;1726743;83;21160;-67
2021/03/09 01:48:03;;;;;;;5.62;2.52;;;;;;;-5.28;64.41;100254.67;1760422;80;21136;-68
2021/03/09 01:50:34;;;;;;;5.50;2.52;;;;;;;-5.26;64.40;100258.06;1774947;79;21610;-68
2021/03/09 01:53:06;;;;;;;5.65;2.40;;;;;;;-5.27;64.23;100262.81;1830802;77;21826;-69
2021/03/09 01:55:34;;;;;;;5.70;2.87;;;;;;;-5.28;64.07;100271.41;1841106;77;21133;-68
2021/03/09 01:58:10;;;;;;;5.37;2.80;;;;;;;-5.28;63.99;100277.00;1810627;79;21115;-67
2021/03/09 02:00:41;;;;;;;5.97;3.00;;;;;;;-5.28;63.97;100273.13;1779793;80;21060;-67
2021/03/09 02:03:08;;;;;;;4.78;2.27;;;;;;;-5.26;63.87;100277.37;1812345;77;21068;-67
2021/03/09 02:05:36;;;;;;;6.65;2.80;;;;;;;-5.24;63.82;100283.34;1817670;77;22289;-68
2021/03/09 02:08:05;;;;;;;4.08;2.35;;;;;;;-5.23;63.81;100281.17;1815717;79;21071;-67
2021/03/09 02:10:33;;;;;;;5.08;3.02;;;;;;;-5.21;63.71;100281.17;1816067;79;21099;-68
2021/03/09 02:13:09;;;;;;;4.65;2.67;;;;;;;-5.21;63.58;100288.46;1770317;80;21138;-68
2021/03/09 02:16:03;;;;;;;5.80;2.90;;;;;;;-5.20;63.49;100288.88;1731626;81;21027;-68
2021/03/09 02:19:28;;;;;;;4.65;2.75;;;;;;;-5.22;63.43;100285.45;1776165;80;22827;-68
2021/03/09 02:22:54;;;;;;;5.65;2.85;;;;;;;-5.21;63.41;100294.05;1773777;80;21092;-70
2021/03/09 02:25:47;;;;;;;;;;;;;;;-5.29;63.44;100298.47;1748807;82;21413;-69
2021/03/09 02:28:37;;;;;;;4.30;2.58;;;;;;;-5.37;63.56;100296.01;1734659;79;20875;-69
2021/03/09 02:31:06;;;;;;;5.50;3.40;;;;;;;-5.40;63.60;100297.77;1772746;80;21059;-70
2021/03/09 02:33:39;;;;;;;6.42;2.77;;;;;;;-5.43;63.70;100305.10;1808984;79;22508;-69
2021/03/09 02:36:11;;;;;;;5.80;3.08;;;;;;;-5.44;63.73;100303.41;1813530;79;21354;-69
2021/03/09 02:38:53;;;;;;;4.25;2.40;;;;;;;-5.47;63.76;100307.32;1805421;78;21148;-69
2021/03/09 02:41:21;;;;;;;6.87;2.80;;;;;;;-5.52;63.80;100306.09;1772267;77;21373;-69
2021/03/09 02:43:55;;;;;;;6.05;3.67;;;;;;;-5.57;63.93;100312.20;1763736;80;21335;-69
2021/03/09 02:46:25;;;;;;;5.25;2.77;;;;;;;-5.56;63.97;100312.61;1774563;80;22015;-69
2021/03/09 02:48:53;;;;;;;6.60;3.33;;;;;;;-5.58;64.03;100313.92;1773866;80;21114;-69
2021/03/09 02:51:26;;;;;;;6.72;3.45;;;;;;;-5.60;64.14;100314.35;1746631;80;21541;-69
2021/03/09 02:53:56;;;;;;;5.07;3.37;;;;;;;-5.63;64.20;100316.98;1774228;80;21086;-69
2021/03/09 02:56:24;;;;;;;4.17;2.47;;;;;;;-5.65;64.25;100313.59;1774532;80;21285;-69
2021/03/09 02:58:56;;;;;;;3.98;2.30;;;;;;;-5.66;64.31;100317.47;1774473;80;22041;-69
2021/03/09 03:01:27;;;;;;;5.15;2.98;;;;;;;-5.68;64.36;100314.92;1815700;79;21113;-69
2021/03/09 03:03:55;;;;;;;6.37;3.35;;;;;;;-5.70;64.41;100311.50;1805418;79;21053;-69
2021/03/09 03:06:24;;;;;;;5.20;3.00;;;;;;;-5.73;64.49;100310.27;1775968;80;21457;-69
2021/03/09 03:08:52;;;;;;;5.55;3.30;;;;;;;-5.76;64.59;100316.31;1742496;82;21136;-69
2021/03/09 03:11:20;;;;;;;7.20;3.30;;;;;;;-5.73;64.66;100318.42;1699297;83;22068;-69
2021/03/09 03:13:48;;;;;;;3.50;2.30;;;;;;;-5.76;64.66;100324.03;1758471;80;21071;-69
2021/03/09 03:16:17;;;;;;;6.30;3.10;;;;;;;-5.76;64.75;100327.89;1822597;77;21123;-69
2021/03/09 03:18:45;;;;;;;7.17;3.17;;;;;;;-5.72;64.77;100327.40;1849246;77;21161;-69
2021/03/09 03:21:14;;;;;;;4.55;2.92;;;;;;;-5.71;64.78;100332.11;1846909;77;21108;-70
2021/03/09 03:23:43;;;;;;;5.47;3.08;;;;;;;-5.71;64.87;100328.25;1830253;77;22054;-69
2021/03/09 03:26:11;;;;;;;4.22;2.67;;;;;;;-5.69;64.92;100331.64;1800739;77;21535;-69
2021/03/09 03:28:41;;;;;;;5.20;3.22;;;;;;;-5.67;64.96;100333.78;1803775;77;21493;-69
2021/03/09 03:31:08;;;;;;;6.75;3.35;;;;;;;-5.64;65.02;100336.30;1797332;78;21062;-69
2021/03/09 03:33:36;;;;;;;6.15;2.75;;;;;;;-5.61;65.02;100341.39;1816290;77;21099;-69
2021/03/09 03:36:06;;;;;;;4.55;2.77;;;;;;;-5.56;65.09;100346.05;1815598;79;21721;-69
2021/03/09 03:38:39;;;;;;;6.03;3.17;;;;;;;-5.53;65.00;100351.15;1815225;78;21108;-69
2021/03/09 03:41:08;;;;;;;4.40;2.30;;;;;;;-5.50;64.97;100350.69;1814618;79;21057;-69
2021/03/09 03:43:37;;;;;;;4.60;2.58;;;;;;;-5.47;65.01;100349.34;1814833;78;21319;-69
2021/03/09 03:46:07;;;;;;;3.58;2.33;;;;;;;-5.45;64.97;100351.89;1815716;79;21069;-69
2021/03/09 03:48:36;;;;;;;5.42;3.00;;;;;;;-5.43;64.97;100348.85;1835182;77;22058;-69
2021/03/09 03:51:08;;;;;;;9.40;6.15;;;;;;;-5.40;64.96;100356.96;1814621;77;21524;-69
2021/03/09 03:53:58;;;;;;;15.18;8.70;;;;;;;-5.37;64.97;100357.78;1769308;79;21058;-69
2021/03/09 03:56:49;;;;;;;61.83;28.10;;;;;;;-5.32;64.91;100355.13;1800284;79;21204;-69
2021/03/09 03:59:33;;;;;;;51.65;23.07;;;;;;;-5.29;64.89;100357.68;1815938;77;21065;-69
2021/03/09 04:02:04;;;;;;;54.50;22.00;;;;;;;-5.27;64.90;100352.91;1786803;79;22053;-69
2021/03/09 04:04:32;;;;;;;70.12;25.65;;;;;;;-5.23;64.78;100368.71;1774397;80;21246;-69
2021/03/09 04:06:59;;;;;;;52.53;21.62;;;;;;;-5.21;64.79;100362.28;1742395;82;21144;-69
2021/03/09 04:09:28;;;;;;;92.10;36.75;;;;;;;-5.19;64.76;100359.23;1728222;80;21069;-69
2021/03/09 04:11:55;;;;;;;51.00;22.00;;;;;;;-5.15;64.81;100368.59;1745979;80;21070;-69
2021/03/09 04:14:23;;;;;;;9.15;4.45;;;;;;;-5.13;64.73;100369.86;1758996;79;21827;-70
2021/03/09 04:16:53;;;;;;;52.60;25.25;;;;;;;-5.12;64.65;100378.84;1806440;79;21101;-69
2021/03/09 04:19:22;;;;;;;37.90;16.42;;;;;;;-5.12;64.71;100371.12;1803703;79;21398;-69
2021/03/09 04:21:50;;;;;;;65.92;27.07;;;;;;;-5.10;64.75;100372.41;1754945;79;21395;-69
2021/03/09 04:24:17;;;;;;;13.58;6.45;;;;;;;-5.09;64.71;100379.26;1770528;79;21045;-69
2021/03/09 04:26:45;;;;;;;7.35;3.52;;;;;;;-5.09;64.74;100383.97;1806540;79;21882;-69
2021/03/09 04:29:13;;;;;;;9.80;4.30;;;;;;;-5.08;64.75;100384.38;1724015;79;21102;-70
2021/03/09 04:31:41;;;;;;;19.07;8.05;;;;;;;-5.08;64.80;100386.11;1746394;80;21150;-69
2021/03/09 04:34:10;;;;;;;17.70;8.75;;;;;;;-5.07;64.82;100385.23;1816221;77;21656;-69
2021/03/09 04:36:38;;;;;;;111.47;47.08;;;;;;;-5.04;64.84;100383.45;1815598;78;21049;-69
2021/03/09 04:39:06;;;;;;;28.15;11.65;;;;;;;-4.99;64.94;100388.54;1746349;80;22000;-69
2021/03/09 04:41:33;;;;;;;29.30;11.40;;;;;;;-4.96;64.83;100394.92;1711737;82;21105;-70
2021/03/09 04:44:01;;;;;;;59.95;23.90;;;;;;;-4.94;64.71;100390.59;1728147;80;21124;-69
2021/03/09 04:46:28;;;;;;;98.62;38.10;;;;;;;-4.92;64.74;100403.03;1774922;79;21070;-69
2021/03/09 04:48:56;;;;;;;42.70;18.75;;;;;;;-4.88;64.80;100407.25;1823837;77;21038;-69
2021/03/09 04:51:25;;;;;;;19.95;9.78;;;;;;;-4.86;64.67;100407.22;1773980;80;22066;-66
2021/03/09 04:53:53;;;;;;;13.70;6.65;;;;;;;-4.84;64.69;100407.59;1758347;80;21124;-70
2021/03/09 04:56:21;;;;;;;9.18;4.85;;;;;;;-4.81;64.74;100406.72;1726674;82;21182;-71
2021/03/09 04:58:48;;;;;;;7.03;4.03;;;;;;;-4.79;64.57;100410.12;1764622;79;21549;-69
2021/03/09 05:01:16;;;;;;;5.92;3.37;;;;;;;-4.79;64.57;100408.39;1808512;77;21477;-69
2021/03/09 05:03:44;;;;;;;7.25;3.98;;;;;;;-4.76;64.50;100411.34;1773464;80;23062;-67
2021/03/09 05:06:12;;;;;;;7.97;3.30;;;;;;;-4.77;64.53;100412.22;1768528;79;21588;-69
2021/03/09 05:08:39;;;;;;;5.85;3.10;;;;;;;-4.75;64.49;100418.20;1776038;79;21177;-68
2021/03/09 05:11:07;;;;;;;18.77;8.50;;;;;;;-4.74;64.56;100425.05;1755443;80;21078;-69
2021/03/09 05:13:37;;;;;;;27.73;12.25;;;;;;;-4.72;64.48;100418.17;1782587;80;21049;-69
2021/03/09 05:16:05;;;;;;;31.93;13.15;;;;;;;-4.69;64.58;100423.26;1768560;79;22849;-69
2021/03/09 05:18:34;;;;;;;13.98;7.22;;;;;;;-4.64;64.53;100431.31;1782192;79;21136;-67
2021/03/09 05:21:04;;;;;;;15.20;8.65;;;;;;;-4.61;64.51;100429.14;1765373;80;21129;-67
2021/03/09 05:23:32;;;;;;;13.32;6.58;;;;;;;-4.56;64.42;100426.03;1741301;82;21167;-68
2021/03/09 05:26:01;;;;;;;18.00;9.90;;;;;;;-4.52;64.26;100430.72;1765598;80;21121;-67
2021/03/09 05:28:28;;;;;;;15.60;8.48;;;;;;;-4.51;64.23;100424.69;1756907;80;22855;-68
2021/03/09 05:30:56;;;;;;;7.55;4.03;;;;;;;-4.46;64.29;100427.58;1773418;79;21149;-68
2021/03/09 05:33:24;;;;;;;6.37;3.77;;;;;;;-4.41;64.28;100426.23;1774312;80;21046;-70
2021/03/09 05:35:52;;;;;;;12.70;3.27;;;;;;;-4.41;64.07;100423.64;1798274;78;22588;-71
2021/03/09 05:38:20;;;;;;;5.25;3.42;;;;;;;-4.39;64.12;100425.75;1781433;80;21109;-73
2021/03/09 05:40:47;;;;;;;6.00;3.25;;;;;;;-4.35;64.12;100431.25;1779689;79;22032;-68
2021/03/09 05:43:16;;;;;;;6.30;3.47;;;;;;;-4.30;64.01;100440.22;1786001;79;21094;-68
2021/03/09 05:45:44;;;;;;;5.05;3.08;;;;;;;-4.30;63.87;100441.06;1803672;79;21172;-69
2021/03/09 05:48:12;;;;;;;11.50;3.75;;;;;;;-4.28;63.84;100444.90;1803404;78;21109;-69
2021/03/09 05:50:40;;;;;;;10.08;4.65;;;;;;;-4.23;64.00;100449.11;1781851;79;21189;-69
2021/03/09 05:53:07;;;;;;;11.38;6.60;;;;;;;-4.16;63.76;100443.38;1760798;80;22095;-68
2021/03/09 05:55:35;;;;;;;10.90;5.75;;;;;;;-4.12;63.70;100453.63;1731130;82;21149;-69
2021/03/09 05:58:03;;;;;;;8.50;4.33;;;;;;;-4.06;63.70;100455.23;1777769;80;21130;-69
2021/03/09 06:00:32;;;;;;;12.10;4.00;;;;;;;-3.97;63.79;100459.38;1777690;80;21142;-69
2021/03/09 06:03:01;;;;;;;5.72;3.45;;;;;;;-3.89;63.64;100469.11;1777678;79;21184;-69
2021/03/09 06:05:29;;;;;;;6.92;3.50;;;;;;;-3.85;63.25;100463.89;1777725;80;22060;-69
2021/03/09 06:07:56;;;;;;;6.03;3.27;;;;;;;-3.82;63.20;100463.81;1769984;80;21524;-69
2021/03/09 06:10:24;;;;;;;6.85;2.92;;;;;;;-3.78;63.09;100467.17;1746617;81;21531;-69
2021/03/09 06:12:53;;;;;;;6.20;2.98;;;;;;;-3.72;62.83;100473.97;1740983;82;21125;-69
2021/03/09 06:15:20;;;;;;;4.37;2.52;;;;;;;-3.70;62.84;100478.20;1761610;81;21160;-69
2021/03/09 06:17:58;;;;;;;6.08;2.98;;;;;;;-3.65;62.20;100476.40;1742085;81;22008;-69
2021/03/09 06:20:30;;;;;;;5.92;2.87;;;;;;;-3.62;62.33;100477.63;1761591;81;21079;-69
2021/03/09 06:23:00;;;;;;;4.62;2.37;;;;;;;-3.56;62.29;100480.09;1742150;82;21078;-68
2021/03/09 06:25:39;;;;;;;4.03;2.55;;;;;;;-3.47;62.02;100484.22;1761630;81;21072;-68
2021/03/09 06:28:08;;;;;;;5.05;2.90;;;;;;;-3.44;61.72;100480.28;1711270;83;21075;-69
2021/03/09 06:30:38;;;;;;;5.78;3.45;;;;;;;-3.42;61.73;100480.24;1748789;80;22054;-68
2021/03/09 06:33:06;;;;;;;10.90;6.47;;;;;;;-3.41;61.02;100485.37;1742083;82;21075;-69
2021/03/09 06:35:43;;;;;;;15.72;6.12;;;;;;;-3.40;61.03;100489.66;1761265;80;21065;-69
2021/03/09 06:38:30;;;;;;;8.83;5.10;;;;;;;-3.35;60.96;100490.42;1734599;82;21168;-67
2021/03/09 06:41:18;;;;;;;7.65;4.65;;;;;;;-3.33;60.59;100501.56;1720482;83;21476;-68
2021/03/09 06:44:02;;;;;;;11.53;6.97;;;;;;;-3.27;60.62;100501.89;1742831;82;22135;-68
2021/03/09 06:46:29;;;;;;;4.60;2.50;;;;;;;-3.24;59.97;100497.50;1751845;80;21615;-68
2021/03/09 06:49:02;;;;;;;4.95;2.30;;;;;;;-3.21;59.33;100502.59;1777486;80;21072;-67
2021/03/09 06:51:36;;;;;;;5.10;2.77;;;;;;;-3.20;59.15;100507.31;1777764;80;21163;-67
2021/03/09 06:54:11;;;;;;;6.50;2.50;;;;;;;-3.15;59.08;100514.55;1777609;80;21519;-67
2021/03/09 06:56:43;;;;;;;5.97;3.08;;;;;;;-3.10;59.10;100512.70;1777576;80;22059;-67
2021/03/09 06:59:25;;;;;;;4.45;2.30;;;;;;;-3.03;59.27;100510.40;1777499;80;21166;-68
2021/03/09 07:02:12;;;;;;;5.20;2.83;;;;;;;-2.92;58.89;100516.62;1777544;80;21139;-67
2021/03/09 07:04:50;;;;;;;3.47;2.02;;;;;;;-2.89;58.45;100523.03;1776237;80;21158;-67
2021/03/09 07:07:34;;;;;;;3.05;2.10;;;;;;;-2.85;58.20;100526.39;1775932;80;21060;-67
2021/03/09 07:10:13;;;;;;;5.00;2.70;;;;;;;-2.82;57.81;100530.19;1762747;80;22757;-68
2021/03/09 07:12:42;;;;;;;3.30;1.60;;;;;;;-2.85;57.62;100528.97;1775467;80;21260;-70
2021/03/09 07:15:13;;;;;;;2.37;1.50;;;;;;;-2.84;57.58;100536.69;1771100;80;21571;-68
2021/03/09 07:17:41;;;;;;;19.50;9.15;;;;;;;-2.82;57.27;100537.95;1764017;80;21610;-68
2021/03/09 07:20:11;;;;;;;10.93;6.35;;;;;;;-2.81;57.24;100540.94;1775813;80;21076;-69
2021/03/09 07:22:43;;;;;;;8.18;4.78;;;;;;;-2.82;56.89;100541.83;1772893;80;21894;-68
2021/03/09 07:25:15;;;;;;;13.55;7.17;;;;;;;-2.84;56.58;100539.72;1775840;80;21135;-68
2021/03/09 07:28:07;;;;;;;4.75;2.47;;;;;;;-2.90;56.38;100544.56;1775028;80;21135;-68
2021/03/09 07:30:39;;;;;;;9.78;5.03;;;;;;;-2.96;56.24;100544.27;1763365;80;21064;-69
2021/03/09 07:33:06;;;;;;;10.88;5.20;;;;;;;-3.02;56.46;100548.27;1774683;80;21051;-68
2021/03/09 07:35:34;;;;;;;16.37;6.78;;;;;;;-3.13;56.61;100547.65;1764612;80;22047;-68
2021/03/09 07:38:04;;;;;;;10.85;4.60;;;;;;;-3.20;57.09;100549.50;1770439;80;21535;-68
2021/03/09 07:40:34;;;;;;;17.65;8.60;;;;;;;-3.24;57.41;100560.78;1776355;80;21111;-68
2021/03/09 07:43:03;;;;;;;14.40;6.42;;;;;;;-3.26;57.66;100566.88;1754088;80;21158;-69
2021/03/09 07:45:34;;;;;;;13.65;5.42;;;;;;;-3.27;58.19;100574.21;1777797;80;21143;-68
2021/03/09 07:48:06;;;;;;;12.37;5.90;;;;;;;-3.28;59.10;100569.90;1765119;80;21999;-68
2021/03/09 07:50:39;;;;;;;13.93;6.53;;;;;;;-3.35;59.76;100583.39;1772509;80;21109;-68
2021/03/09 07:53:11;;;;;;;6.35;3.08;;;;;;;-3.48;60.73;100586.63;1777942;79;21123;-68
2021/03/09 07:55:45;;;;;;;8.63;4.40;;;;;;;-3.57;61.59;100595.86;1753665;80;21059;-69
2021/03/09 07:58:26;;;;;;;5.03;2.50;;;;;;;-3.59;62.12;100595.02;1777591;80;21117;-69
2021/03/09 08:01:09;;;;;;;6.28;2.80;;;;;;;-3.58;62.54;100591.55;1777796;80;21984;-68
2021/03/09 08:03:40;;;;;;;6.70;2.65;;;;;;;-3.65;62.84;100593.00;1777276;80;21068;-68
2021/03/09 08:06:12;;;;;;;3.87;2.62;;;;;;;-3.70;63.47;100599.52;1777743;79;21042;-69
2021/03/09 08:08:46;;;;;;;4.67;2.77;;;;;;;-3.69;63.97;100607.67;1777758;80;21066;-68
2021/03/09 08:11:25;;;;;;;5.03;3.12;;;;;;;-3.58;64.51;100609.63;1777386;80;21102;-69
2021/03/09 08:14:15;;;;;;;4.42;3.00;;;;;;;-3.49;64.52;100613.77;1761668;81;22843;-69
2021/03/09 08:16:43;;;;;;;8.23;2.70;;;;;;;-3.44;64.04;100611.13;1761573;81;21135;-69
2021/03/09 08:19:27;;;;;;;4.08;2.80;;;;;;;-3.35;64.15;100617.41;1775132;79;21112;-71
2021/03/09 08:22:01;;;;;;;6.87;2.98;;;;;;;-3.32;63.39;100614.31;1784006;79;21081;-69
2021/03/09 08:24:46;;;;;;;4.58;2.10;;;;;;;-3.32;63.33;100606.57;1752058;80;21071;-68
2021/03/09 08:27:32;;;;;;;3.47;2.30;;;;;;;-3.33;62.57;100615.64;1752959;80;22852;-69
2021/03/09 08:30:31;;;;;;;3.47;2.02;;;;;;;-3.36;63.12;100610.55;1758854;80;21133;-68
2021/03/09 08:33:27;;;;;;;3.60;2.00;;;;;;;-3.29;63.21;100606.95;1760107;81;21077;-68
2021/03/09 08:35:55;;;;;;;5.12;2.60;;;;;;;-3.24;63.09;100602.56;1770304;79;21378;-68
2021/03/09 08:38:24;;;;;;;5.30;3.50;;;;;;;-3.19;63.38;100602.01;1758183;81;21139;-68
2021/03/09 08:41:01;;;;;;;4.00;2.40;;;;;;;-3.05;63.39;100605.63;1758250;80;23076;-68
2021/03/09 08:43:29;;;;;;;6.22;3.37;;;;;;;-2.87;64.00;100610.43;1815270;79;21078;-68
2021/03/09 08:45:59;;;;;;;5.85;3.85;;;;;;;-2.68;63.74;100615.63;1815210;79;21149;-70
2021/03/09 08:48:44;;;;;;;6.53;3.75;;;;;;;-2.58;63.08;100616.28;1807622;79;21058;-67
2021/03/09 08:51:43;;;;;;;6.97;3.58;;;;;;;-2.57;63.21;100607.63;1815615;79;21102;-67
2021/03/09 08:54:30;;;;;;;4.87;2.83;;;;;;;-2.47;62.92;100610.42;1815599;79;22115;-67
2021/03/09 08:57:03;;;;;;;4.40;2.45;;;;;;;-2.27;61.79;100610.41;1815613;79;21069;-68
2021/03/09 08:59:33;;;;;;;4.60;2.50;;;;;;;-2.15;59.64;100610.13;1814259;79;21553;-68
2021/03/09 09:02:20;;;;;;;4.12;2.20;;;;;;;-2.09;58.53;100609.55;1786721;79;21418;-72
2021/03/09 09:05:01;;;;;;;5.30;2.80;;;;;;;-2.02;58.04;100605.08;1807719;77;21192;-69
2021/03/09 09:07:36;;;;;;;6.22;2.50;;;;;;;-1.96;57.91;100604.06;1818682;77;22961;-68
2021/03/09 09:10:19;;;;;;;4.20;2.50;;;;;;;-1.88;56.66;100604.73;1815691;79;21061;-67
2021/03/09 09:12:48;;;;;;;3.87;2.52;;;;;;;-1.84;56.56;100605.05;1773143;80;21069;-68
2021/03/09 09:15:30;;;;;;;4.78;2.35;;;;;;;-1.71;55.22;100609.05;1815601;79;21058;-68
2021/03/09 09:18:06;;;;;;;4.62;2.40;;;;;;;-1.69;55.12;100609.86;1774498;80;21039;-67
2021/03/09 09:23:27;;;;;;;5.35;3.08;;;;;;;-1.27;54.34;100619.53;1888478;75;27791;-68
2021/03/09 09:26:00;;;;;;;3.95;2.87;;;;;;;-1.25;52.86;100611.30;1747118;80;21086;-68
2021/03/09 09:28:38;;;;;;;3.55;2.30;;;;;;;-1.33;52.95;100614.53;1820360;77;22964;-68
2021/03/09 09:31:13;;;;;;;4.75;2.42;;;;;;;-1.31;52.97;100618.38;1849707;77;21110;-68
2021/03/09 09:33:54;;;;;;;4.60;2.83;;;;;;;-1.28;52.46;100618.28;1849300;77;21165;-68
2021/03/09 09:36:24;;;;;;;4.60;2.55;;;;;;;-1.17;52.67;100617.09;1849432;77;21116;-68
2021/03/09 09:38:54;;;;;;;3.92;2.70;;;;;;;-0.90;52.37;100618.52;1821360;77;21114;-68
2021/03/09 09:41:25;;;;;;;3.33;2.30;;;;;;;-0.73;51.61;100621.48;1849996;77;21947;-68
2021/03/09 09:43:54;;;;;;;4.42;2.27;;;;;;;-0.77;50.36;100616.00;1850073;77;21089;-68
2021/03/09 09:46:25;;;;;;;3.52;1.90;;;;;;;-0.84;49.80;100617.51;1850045;77;21626;-68
2021/03/09 09:48:53;;;;;;;2.55;1.87;;;;;;;-0.94;49.53;100627.30;1850018;77;21102;-68
2021/03/09 09:51:24;;;;;;;3.65;2.30;;;;;;;-1.06;48.48;100624.59;1822326;77;21235;-68
2021/03/09 09:53:53;;;;;;;3.75;2.37;;;;;;;-1.21;49.78;100625.85;1849027;77;22059;-68
2021/03/09 09:56:24;;;;;;;3.45;2.15;;;;;;;-1.22;50.21;100631.09;1847623;77;21057;-69
2021/03/09 09:59:01;;;;;;;2.75;2.20;;;;;;;-1.25;48.66;100637.20;1847703;77;21062;-68
2021/03/09 10:01:38;;;;;;;2.70;2.27;;;;;;;-1.42;49.26;100643.72;1847626;77;21042;-68
2021/03/09 10:04:13;;;;;;;4.42;2.47;;;;;;;-1.64;49.56;100645.98;1847674;77;21022;-68
2021/03/09 10:06:50;;;;;;;4.25;2.50;;;;;;;-1.85;49.50;100639.15;1822253;77;22073;-68
2021/03/09 10:09:22;;;;;;;4.00;2.92;;;;;;;-2.01;50.15;100637.84;1849758;77;21148;-68
2021/03/09 10:11:59;;;;;;;4.37;2.58;;;;;;;-2.07;50.54;100649.61;1848125;77;21022;-68
2021/03/09 10:14:29;;;;;;;4.50;2.30;;;;;;;-2.03;50.46;100643.47;1847620;77;21070;-68
2021/03/09 10:16:56;;;;;;;3.90;2.50;;;;;;;-1.98;50.24;100643.38;1847746;77;21049;-68
2021/03/09 10:19:37;;;;;;;5.45;3.00;;;;;;;-1.99;49.18;100633.47;1821875;77;22058;-68
2021/03/09 10:22:20;;;;;;;4.05;2.62;;;;;;;-1.99;49.87;100637.80;1847379;77;21114;-68
2021/03/09 10:24:48;;;;;;;3.10;2.02;;;;;;;-1.96;49.43;100632.53;1847781;77;21038;-68
2021/03/09 10:27:18;;;;;;;3.45;2.27;;;;;;;-1.79;49.88;100640.75;1846595;77;21129;-69
2021/03/09 10:29:46;;;;;;;3.87;2.30;;;;;;;-1.64;49.88;100639.09;1847592;77;21121;-68
2021/03/09 10:32:15;;;;;;;3.77;2.05;;;;;;;-1.46;49.12;100638.59;1847657;77;21939;-68
2021/03/09 10:34:52;;;;;;;5.47;2.37;;;;;;;-1.33;48.32;100646.07;1846929;77;21110;-68
2021/03/09 10:37:21;;;;;;;3.67;2.40;;;;;;;-1.31;47.66;100642.98;1846963;77;21050;-68
2021/03/09 10:39:57;;;;;;;3.08;1.98;;;;;;;-1.36;47.33;100643.54;1795229;77;21508;-68
2021/03/09 10:42:33;;;;;;;4.53;2.17;;;;;;;-1.36;48.18;100637.91;1846958;77;21109;-68
2021/03/09 10:45:26;;;;;;;4.25;3.12;;;;;;;-1.24;47.88;100635.02;1841145;77;22113;-68
2021/03/09 10:48:00;;;;;;;4.25;2.95;;;;;;;-1.18;47.76;100638.72;1830348;78;21505;-67
2021/03/09 10:50:39;;;;;;;3.30;2.20;;;;;;;-1.13;48.53;100637.31;1830299;78;21481;-68
2021/03/09 10:53:06;;;;;;;4.22;2.62;;;;;;;-1.09;49.28;100639.37;1826974;77;21135;-68
2021/03/09 10:55:33;;;;;;;4.97;2.70;;;;;;;-1.05;49.19;100639.70;1843207;77;21090;-68
2021/03/09 10:58:01;;;;;;;6.78;2.42;;;;;;;-1.06;48.93;100640.56;1846950;77;21888;-68
2021/03/09 11:00:28;;;;;;;4.35;2.37;;;;;;;-1.08;48.84;100641.06;1846907;77;21074;-68
2021/03/09 11:02:56;;;;;;;4.00;2.40;;;;;;;-1.09;48.91;100639.37;1834014;77;21081;-70
2021/03/09 11:05:24;;;;;;;3.33;2.47;;;;;;;-1.07;48.57;100646.65;1830147;78;21141;-68
2021/03/09 11:07:53;;;;;;;3.42;2.50;;;;;;;-1.09;48.95;100640.66;1845858;77;21160;-68
2021/03/09 11:10:21;;;;;;;3.25;2.20;;;;;;;-1.08;48.17;100642.36;1762042;81;21949;-68
2021/03/09 11:12:48;;;;;;;4.47;1.95;;;;;;;-1.24;47.59;100646.68;1793304;80;21069;-69
2021/03/09 11:15:17;;;;;;;2.95;2.20;;;;;;;-1.30;48.41;100649.87;1793346;80;21149;-68
2021/03/09 11:17:45;;;;;;;4.10;2.67;;;;;;;-1.26;48.66;100643.25;1761917;81;21142;-69
2021/03/09 11:20:15;;;;;;;4.72;2.72;;;;;;;-1.20;48.44;100642.25;1760012;81;21145;-68
2021/03/09 11:22:42;;;;;;;3.47;2.40;;;;;;;-1.13;48.36;100644.24;1777613;79;22109;-68
2021/03/09 11:25:12;;;;;;;3.30;2.37;;;;;;;-1.04;49.33;100649.18;1759611;81;21101;-68
2021/03/09 11:27:40;;;;;;;4.60;2.70;;;;;;;-0.96;48.83;100651.13;1730161;83;21057;-68
2021/03/09 11:30:09;;;;;;;3.75;2.67;;;;;;;-1.03;49.10;100654.77;1756045;81;21061;-68
2021/03/09 11:32:37;;;;;;;4.05;2.87;;;;;;;-1.22;49.65;100657.00;1756186;81;21342;-68
2021/03/09 11:35:06;;;;;;;4.22;2.55;;;;;;;-1.36;50.49;100661.23;1756090;81;21782;-68
2021/03/09 11:37:34;;;;;;;4.28;2.50;;;;;;;-1.41;50.62;100663.55;1755229;81;21116;-68
2021/03/09 11:40:05;;;;;;;3.65;2.60;;;;;;;-1.50;50.86;100665.48;1755832;81;21054;-69
2021/03/09 11:42:34;;;;;;;3.40;2.33;;;;;;;-1.50;51.06;100663.34;1755975;81;21117;-69
2021/03/09 11:45:04;;;;;;;6.10;3.33;;;;;;;-1.50;51.46;100660.75;1756115;81;21133;-68
2021/03/09 11:47:32;;;;;;;6.12;3.05;;;;;;;-1.55;51.91;100668.61;1755402;81;22054;-68
2021/03/09 11:50:00;;;;;;;4.37;2.67;;;;;;;-1.59;52.41;100667.00;1755507;81;21077;-67